20:21
Airports
History
Links
Donate
Help keep this website running!
PayPal
Bitcoin
Information on this page is community maintained and may be outdated or inaccurate and is intended for reference only or PC simulator navigating.
Always use approved charts for navigating.
CYFB
IqaluitEdited 12-Sep-2012
Iqaluit (CYFB)
Iqaluit, Nunavut, Canada
(C)
Lat/Lng:63° 45' 23" N / 68° 33' 21.02" W
63.756388 / -68.555839
Elevation:110'ft 34mMSL
ID / ICAO:CYFB
Runways:1
Longest:(17-35) 2,623.2m 8,606ft Asphalt
Controlled:Yes
Distance To
Airport ID:
Airport Radio Frequencies
FSS: 122.2
FSS: 126.7
MULTICOM: 126.7
MULTICOM: 126.9
Tower: 134.55
Nearby VORs <50NM
Nearby NDBs
METARUpdated 05-28-17 20:00 GMT
Altimeter: 30.14
Visibility: 30.0 statute miles
Wind: 12 knots (310°)
Temp: 3°c 37°f
Humidity: 64.6%

METAR: CYFB 282000Z 31012KT 30SM BKN250 03/M03 A3014 RMK CI6 SLP211

(Powered by phpweather)
Runway 17 / 35
Dimensions:2623.2 x 61m 8606' x 200'ft
Surface:Asphalt
Edge Lights:High intensity
Runway 17 [A]Runway 35 [B]
Heading:135°TH 315°TH
Lat:
Lng:
63° 45' 53.96"N
68° 34' 28.97"W
63° 44' 53.31"N
68° 32' 14.65"W
TDZ:Yes, lighted
Edited 09-12-122
User Notes and Comments
Google Map
Nearby Airports
4 Pangnirtung 184.7 NM
CYXP NNE 26°
4 Kattiniq 209.0 NM
CTP9 SW 226°
4 Cape Dorset 243.5 NM
CYTE (WX) W 277°
4 Salluit 248.3 NM
CYZG WSW 243°
4 QIKIQTARJUAQ 291.7 NM
CYVM NNE 26°
4 IVUJIVIK 306.9 NM
CYIK WSW 252°
4 AKULIVIK 368.5 NM
CYKO SW 236°
VFR Chart
Flight Planning at SkyVector.com